Time,TemperatureF,DewpointF,PressureIn,WindDirection,WindDirectionDegrees,WindSpeedMPH,WindSpeedGustMPH,Humidity,HourlyPrecipIn,Conditions,Clouds,dailyrainin,SolarRadiationWatts/m^2,SoftwareType,DateUTC
2013-04-13 00:00:00,32.3,26.2,30.00,WNW,284,8.0,10.0,78,0.00,,,0.00,0,Wunderground v.1.15,2013-04-13 05:00:00,
2013-04-13 00:10:00,32.2,26.4,30.00,WNW,290,8.0,8.0,79,0.00,,,0.00,0,Wunderground v.1.15,2013-04-13 05:10:00,
2013-04-13 00:19:00,32.2,26.7,30.00,NW,318,8.0,11.0,80,0.00,,,0.00,0,Wunderground v.1.15,2013-04-13 05:19:00,
2013-04-13 00:30:00,32.2,26.7,30.01,West,281,7.0,9.0,80,0.00,,,0.00,0,Wunderground v.1.15,2013-04-13 05:30:00,
2013-04-13 00:40:00,32.1,26.9,30.01,NW,314,7.0,7.0,81,0.00,,,0.00,0,Wunderground v.1.15,2013-04-13 05:40:00,
2013-04-13 00:49:00,32.1,26.9,30.01,WNW,292,8.0,8.0,81,0.00,,,0.00,0,Wunderground v.1.15,2013-04-13 05:49:00,
2013-04-13 00:59:00,32.1,26.9,30.01,WNW,282,9.0,13.0,81,0.00,,,0.00,0,Wunderground v.1.15,2013-04-13 05:59:00,
2013-04-13 01:09:00,31.8,26.6,30.01,WNW,290,10.0,12.0,81,0.00,,,0.00,0,Wunderground v.1.15,2013-04-13 06:09:00,
2013-04-13 01:19:00,31.5,26.6,30.01,West,269,9.0,9.0,82,0.00,,,0.00,0,Wunderground v.1.15,2013-04-13 06:19:00,
2013-04-13 01:29:00,31.4,26.5,30.01,WNW,284,9.0,13.0,82,0.00,,,0.00,0,Wunderground v.1.15,2013-04-13 06:29:00,
2013-04-13 01:40:00,31.3,26.4,30.01,WNW,288,8.0,10.0,82,0.00,,,0.00,0,Wunderground v.1.15,2013-04-13 06:40:00,
2013-04-13 01:49:00,31.5,26.6,30.01,NW,310,9.0,9.0,82,0.00,,,0.00,0,Wunderground v.1.15,2013-04-13 06:49:00,
2013-04-13 01:59:00,31.6,26.7,30.02,WNW,297,9.0,9.0,82,0.00,,,0.00,0,Wunderground v.1.15,2013-04-13 06:59:00,
2013-04-13 02:10:00,31.5,26.3,30.02,WNW,301,9.0,9.0,81,0.00,,,0.00,0,Wunderground v.1.15,2013-04-13 07:10:00,
2013-04-13 02:20:00,31.3,26.1,30.02,WNW,296,7.0,7.0,81,0.00,,,0.00,0,Wunderground v.1.15,2013-04-13 07:20:00,
2013-04-13 02:29:00,31.2,26.3,30.02,NW,315,6.0,7.0,82,0.00,,,0.00,0,Wunderground v.1.15,2013-04-13 07:29:00,
2013-04-13 02:39:00,31.2,26.3,30.02,WNW,298,8.0,8.0,82,0.00,,,0.00,0,Wunderground v.1.15,2013-04-13 07:39:00,
2013-04-13 02:50:00,31.2,26.3,30.01,WNW,290,8.0,9.0,82,0.00,,,0.00,0,Wunderground v.1.15,2013-04-13 07:50:00,
2013-04-13 02:59:00,30.7,26.1,30.01,WNW,290,8.0,10.0,83,0.00,,,0.00,0,Wunderground v.1.15,2013-04-13 07:59:00,
2013-04-13 03:10:00,30.4,26.1,30.01,WNW,302,8.0,9.0,84,0.00,,,0.00,0,Wunderground v.1.15,2013-04-13 08:10:00,
2013-04-13 03:20:00,30.2,26.2,30.01,West,264,6.0,6.0,85,0.00,,,0.00,0,Wunderground v.1.15,2013-04-13 08:20:00,
2013-04-13 03:30:00,30.0,26.0,30.01,WNW,298,7.0,7.0,85,0.00,,,0.00,0,Wunderground v.1.15,2013-04-13 08:30:00,
2013-04-13 03:49:00,29.7,26.0,30.01,WNW,293,7.0,7.0,86,0.00,,,0.00,0,Wunderground v.1.15,2013-04-13 08:49:00,
2013-04-13 04:00:00,29.4,26.0,30.01,WSW,253,7.0,8.0,87,0.00,,,0.00,0,Wunderground v.1.15,2013-04-13 09:00:00,
2013-04-13 04:20:00,29.2,26.1,30.01,WNW,284,7.0,7.0,88,0.00,,,0.00,0,Wunderground v.1.15,2013-04-13 09:20:00,
2013-04-13 04:30:00,29.1,26.0,30.01,NW,308,6.0,6.0,88,0.00,,,0.00,0,Wunderground v.1.15,2013-04-13 09:30:00,
2013-04-13 04:39:00,29.1,26.0,30.01,WNW,282,6.0,6.0,88,0.00,,,0.00,0,Wunderground v.1.15,2013-04-13 09:39:00,
2013-04-13 04:50:00,29.0,25.9,30.01,West,280,6.0,6.0,88,0.00,,,0.00,0,Wunderground v.1.15,2013-04-13 09:50:00,
2013-04-13 04:59:00,29.0,25.9,30.01,WNW,301,7.0,8.0,88,0.00,,,0.00,0,Wunderground v.1.15,2013-04-13 09:59:00,
2013-04-13 05:09:00,28.9,25.8,30.01,WNW,296,7.0,7.0,88,0.00,,,0.00,0,Wunderground v.1.15,2013-04-13 10:09:00,
2013-04-13 05:20:00,28.8,25.7,30.01,West,263,6.0,7.0,88,0.00,,,0.00,0,Wunderground v.1.15,2013-04-13 10:20:00,
2013-04-13 05:29:00,28.6,25.5,30.01,WSW,246,5.0,5.0,88,0.00,,,0.00,0,Wunderground v.1.15,2013-04-13 10:29:00,
2013-04-13 05:39:00,28.5,25.4,30.01,WSW,252,5.0,5.0,88,0.00,,,0.00,0,Wunderground v.1.15,2013-04-13 10:39:00,
2013-04-13 05:50:00,28.3,25.5,30.01,West,269,4.0,5.0,89,0.00,,,0.00,0,Wunderground v.1.15,2013-04-13 10:50:00,
2013-04-13 06:00:00,28.2,25.4,30.01,West,276,5.0,5.0,89,0.00,,,0.00,0,Wunderground v.1.15,2013-04-13 11:00:00,
2013-04-13 06:09:00,28.1,25.3,30.02,WSW,253,5.0,5.0,89,0.00,,,0.00,0,Wunderground v.1.15,2013-04-13 11:09:00,
2013-04-13 06:29:00,27.9,25.1,30.02,WNW,285,5.0,5.0,89,0.00,,,0.00,0,Wunderground v.1.15,2013-04-13 11:29:00,
2013-04-13 06:40:00,27.9,25.1,30.02,WNW,283,6.0,6.0,89,0.00,,,0.00,0,Wunderground v.1.15,2013-04-13 11:40:00,
2013-04-13 06:50:00,28.0,25.2,30.02,WNW,292,6.0,6.0,89,0.00,,,0.00,9,Wunderground v.1.15,2013-04-13 11:50:00,
2013-04-13 06:59:00,28.2,25.4,30.02,NW,317,4.0,4.0,89,0.00,,,0.00,14,Wunderground v.1.15,2013-04-13 11:59:00,
2013-04-13 07:10:00,28.3,25.2,30.02,West,270,5.0,5.0,88,0.00,,,0.00,18,Wunderground v.1.15,2013-04-13 12:10:00,
2013-04-13 07:19:00,28.5,25.4,30.02,WNW,290,5.0,8.0,88,0.00,,,0.00,21,Wunderground v.1.15,2013-04-13 12:19:00,
2013-04-13 07:29:00,28.8,25.7,30.03,WNW,298,6.0,6.0,88,0.00,,,0.00,26,Wunderground v.1.15,2013-04-13 12:29:00,
2013-04-13 07:40:00,29.1,26.0,30.03,SW,236,5.0,5.0,88,0.00,,,0.00,30,Wunderground v.1.15,2013-04-13 12:40:00,
2013-04-13 07:50:00,29.4,26.3,30.03,West,265,5.0,8.0,88,0.00,,,0.00,33,Wunderground v.1.15,2013-04-13 12:50:00,
2013-04-13 07:59:00,29.8,26.4,30.03,WNW,282,6.0,6.0,87,0.00,,,0.00,35,Wunderground v.1.15,2013-04-13 12:59:00,
2013-04-13 08:09:00,30.3,26.9,30.03,WSW,250,6.0,8.0,87,0.00,,,0.00,120,Wunderground v.1.15,2013-04-13 13:09:00,
2013-04-13 08:20:00,30.7,27.0,30.03,West,274,7.0,7.0,86,0.00,,,0.00,206,Wunderground v.1.15,2013-04-13 13:20:00,
2013-04-13 08:30:00,31.4,27.4,30.04,West,280,6.0,8.0,85,0.00,,,0.00,279,Wunderground v.1.15,2013-04-13 13:30:00,
2013-04-13 08:40:00,31.9,27.6,30.04,WSW,241,7.0,7.0,84,0.00,,,0.00,315,Wunderground v.1.15,2013-04-13 13:40:00,
2013-04-13 08:49:00,32.6,28.3,30.04,WSW,251,6.0,6.0,84,0.00,,,0.00,355,Wunderground v.1.15,2013-04-13 13:49:00,
2013-04-13 08:59:00,32.9,28.0,30.04,WNW,290,9.0,9.0,82,0.00,,,0.00,388,Wunderground v.1.15,2013-04-13 13:59:00,
2013-04-13 09:10:00,33.7,28.5,30.04,West,271,7.0,9.0,81,0.00,,,0.00,420,Wunderground v.1.15,2013-04-13 14:10:00,
2013-04-13 09:19:00,34.1,28.6,30.04,WNW,288,8.0,8.0,80,0.00,,,0.00,452,Wunderground v.1.15,2013-04-13 14:19:00,
2013-04-13 09:30:00,34.5,28.7,30.03,WNW,292,7.0,7.0,79,0.00,,,0.00,485,Wunderground v.1.15,2013-04-13 14:30:00,
2013-04-13 09:39:00,35.4,29.5,30.03,NW,321,7.0,8.0,79,0.00,,,0.00,517,Wunderground v.1.15,2013-04-13 14:39:00,
2013-04-13 09:49:00,36.1,29.6,30.03,WNW,292,8.0,8.0,77,0.00,,,0.00,547,Wunderground v.1.15,2013-04-13 14:49:00,
2013-04-13 10:00:00,36.8,29.9,30.03,NW,322,7.0,11.0,76,0.00,,,0.00,577,Wunderground v.1.15,2013-04-13 15:00:00,
2013-04-13 10:09:00,37.4,30.2,30.02,NNW,327,8.0,8.0,75,0.00,,,0.00,605,Wunderground v.1.15,2013-04-13 15:09:00,
2013-04-13 10:20:00,37.9,30.4,30.03,West,278,7.0,12.0,74,0.00,,,0.00,642,Wunderground v.1.15,2013-04-13 15:20:00,
2013-04-13 10:30:00,38.3,30.7,30.02,West,262,8.0,9.0,74,0.00,,,0.00,673,Wunderground v.1.15,2013-04-13 15:30:00,
2013-04-13 10:40:00,38.9,31.3,30.03,WNW,299,7.0,10.0,74,0.00,,,0.00,698,Wunderground v.1.15,2013-04-13 15:40:00,
2013-04-13 10:49:00,40.4,32.1,30.03,WNW,286,8.0,8.0,72,0.00,,,0.00,756,Wunderground v.1.15,2013-04-13 15:49:00,
2013-04-13 10:59:00,38.8,30.2,30.02,NW,313,6.0,6.0,71,0.00,,,0.00,802,Wunderground v.1.15,2013-04-13 15:59:00,
2013-04-13 11:10:00,40.8,31.8,30.03,West,264,6.0,6.0,70,0.00,,,0.00,932,Wunderground v.1.15,2013-04-13 16:10:00,
2013-04-13 11:19:00,40.9,31.1,30.03,WNW,292,6.0,11.0,68,0.00,,,0.00,949,Wunderground v.1.15,2013-04-13 16:19:00,
2013-04-13 11:30:00,40.9,32.2,30.02,WSW,257,6.0,6.0,71,0.00,,,0.00,497,Wunderground v.1.15,2013-04-13 16:30:00,
2013-04-13 11:40:00,41.5,31.7,30.03,SW,236,6.0,10.0,68,0.00,,,0.00,265,Wunderground v.1.15,2013-04-13 16:40:00,
2013-04-13 11:49:00,42.4,32.9,30.02,WNW,284,7.0,7.0,69,0.00,,,0.00,949,Wunderground v.1.15,2013-04-13 16:49:00,
2013-04-13 12:00:00,43.3,32.3,30.01,North,360,7.0,7.0,65,0.00,,,0.00,891,Wunderground v.1.15,2013-04-13 17:00:00,
2013-04-13 12:10:00,43.0,32.0,30.01,NNW,329,6.0,8.0,65,0.00,,,0.00,195,Wunderground v.1.15,2013-04-13 17:10:00,
2013-04-13 12:19:00,42.9,33.1,30.00,NNW,329,7.0,8.0,68,0.00,,,0.00,877,Wunderground v.1.15,2013-04-13 17:19:00,
2013-04-13 12:29:00,43.9,32.9,30.00,NW,317,7.0,9.0,65,0.00,,,0.00,937,Wunderground v.1.15,2013-04-13 17:29:00,
2013-04-13 12:40:00,44.3,32.9,30.00,WSW,250,7.0,7.0,64,0.00,,,0.00,988,Wunderground v.1.15,2013-04-13 17:40:00,
2013-04-13 12:50:00,44.1,33.1,30.00,NW,311,5.0,8.0,65,0.00,,,0.00,381,Wunderground v.1.15,2013-04-13 17:50:00,
2013-04-13 12:59:00,46.2,34.7,30.00,NNW,333,7.0,7.0,64,0.00,,,0.00,1018,Wunderground v.1.15,2013-04-13 17:59:00,
2013-04-13 13:10:00,45.1,32.8,29.99,SSW,206,4.0,5.0,62,0.00,,,0.00,424,Wunderground v.1.15,2013-04-13 18:10:00,
2013-04-13 13:19:00,44.2,32.8,29.99,NW,323,4.0,4.0,64,0.00,,,0.00,1005,Wunderground v.1.15,2013-04-13 18:19:00,
2013-04-13 13:30:00,45.8,33.5,29.98,SW,236,4.0,5.0,62,0.00,,,0.00,1049,Wunderground v.1.15,2013-04-13 18:30:00,
2013-04-13 13:40:00,45.7,33.0,29.98,West,274,3.0,4.0,61,0.00,,,0.00,1027,Wunderground v.1.15,2013-04-13 18:40:00,
2013-04-13 13:50:00,47.2,32.3,29.98,SW,236,5.0,5.0,56,0.00,,,0.00,258,Wunderground v.1.15,2013-04-13 18:50:00,
2013-04-13 13:59:00,47.8,33.7,29.97,WNW,298,3.0,3.0,58,0.00,,,0.00,1079,Wunderground v.1.15,2013-04-13 18:59:00,
2013-04-13 14:10:00,47.1,33.1,29.97,NW,314,3.0,4.0,58,0.00,,,0.00,1095,Wunderground v.1.15,2013-04-13 19:10:00,
2013-04-13 14:20:00,48.6,33.1,29.97,SW,227,6.0,6.0,55,0.00,,,0.00,1023,Wunderground v.1.15,2013-04-13 19:20:00,
2013-04-13 14:29:00,48.0,33.9,29.97,WSW,257,6.0,6.0,58,0.00,,,0.00,271,Wunderground v.1.15,2013-04-13 19:29:00,
2013-04-13 14:40:00,47.0,33.4,29.96,WSW,246,2.0,2.0,59,0.00,,,0.00,401,Wunderground v.1.15,2013-04-13 19:40:00,
2013-04-13 14:50:00,47.3,34.9,29.96,North,360,2.0,3.0,62,0.00,,,0.00,526,Wunderground v.1.15,2013-04-13 19:50:00,
2013-04-13 14:59:00,48.9,34.8,29.95,ENE,71,2.0,2.0,58,0.00,,,0.00,939,Wunderground v.1.15,2013-04-13 19:59:00,
2013-04-13 15:09:00,47.7,33.6,29.94,South,189,2.0,2.0,58,0.00,,,0.00,926,Wunderground v.1.15,2013-04-13 20:09:00,
2013-04-13 15:19:00,47.5,33.9,29.94,SSE,148,3.0,3.0,59,0.00,,,0.00,348,Wunderground v.1.15,2013-04-13 20:19:00,
2013-04-13 15:29:00,48.3,34.2,29.93,ESE,118,4.0,5.0,58,0.00,,,0.00,311,Wunderground v.1.15,2013-04-13 20:29:00,
2013-04-13 15:40:00,47.5,33.9,29.93,SSE,163,4.0,7.0,59,0.00,,,0.00,114,Wunderground v.1.15,2013-04-13 20:40:00,
2013-04-13 15:49:00,46.7,34.0,29.92,SE,133,4.0,4.0,61,0.00,,,0.00,155,Wunderground v.1.15,2013-04-13 20:49:00,
2013-04-13 15:59:00,47.0,33.8,29.92,ESE,112,3.0,3.0,60,0.00,,,0.00,244,Wunderground v.1.15,2013-04-13 20:59:00,
2013-04-13 16:10:00,47.8,34.6,29.91,ENE,78,2.0,2.0,60,0.00,,,0.00,200,Wunderground v.1.15,2013-04-13 21:10:00,
2013-04-13 16:20:00,47.2,34.4,29.91,ENE,75,2.0,2.0,61,0.00,,,0.00,171,Wunderground v.1.15,2013-04-13 21:20:00,
2013-04-13 16:29:00,47.3,33.7,29.91,South,172,2.0,2.0,59,0.00,,,0.00,86,Wunderground v.1.15,2013-04-13 21:29:00,
2013-04-13 16:39:00,47.3,34.5,29.90,ESE,123,4.0,8.0,61,0.00,,,0.00,56,Wunderground v.1.15,2013-04-13 21:39:00,
2013-04-13 16:50:00,47.3,34.9,29.90,ESE,118,5.0,5.0,62,0.00,,,0.00,105,Wunderground v.1.15,2013-04-13 21:50:00,
2013-04-13 16:59:00,47.5,34.7,29.89,SE,128,5.0,5.0,61,0.00,,,0.00,118,Wunderground v.1.15,2013-04-13 21:59:00,
2013-04-13 17:10:00,47.6,35.2,29.89,ESE,122,4.0,5.0,62,0.00,,,0.00,58,Wunderground v.1.15,2013-04-13 22:10:00,
2013-04-13 17:19:00,47.3,34.5,29.89,ESE,123,3.0,4.0,61,0.00,,,0.00,91,Wunderground v.1.15,2013-04-13 22:19:00,
2013-04-13 17:29:00,47.5,35.5,29.88,SE,133,4.0,5.0,63,0.00,,,0.00,127,Wunderground v.1.15,2013-04-13 22:29:00,
2013-04-13 17:40:00,47.7,35.3,29.88,ESE,114,6.0,8.0,62,0.00,,,0.00,76,Wunderground v.1.15,2013-04-13 22:40:00,
2013-04-13 17:49:00,47.5,34.7,29.88,SE,135,6.0,6.0,61,0.00,,,0.00,58,Wunderground v.1.15,2013-04-13 22:49:00,
2013-04-13 18:00:00,47.6,36.0,29.87,SSE,159,6.0,6.0,64,0.00,,,0.00,111,Wunderground v.1.15,2013-04-13 23:00:00,
2013-04-13 18:10:00,47.5,35.9,29.87,ESE,117,6.0,6.0,64,0.00,,,0.00,111,Wunderground v.1.15,2013-04-13 23:10:00,
2013-04-13 18:20:00,47.6,36.4,29.87,SE,138,5.0,7.0,65,0.00,,,0.00,67,Wunderground v.1.15,2013-04-13 23:20:00,
2013-04-13 18:29:00,47.3,35.7,29.87,East,96,6.0,10.0,64,0.00,,,0.00,39,Wunderground v.1.15,2013-04-13 23:29:00,
2013-04-13 18:40:00,47.0,35.4,29.87,ESE,120,7.0,7.0,64,0.00,,,0.00,42,Wunderground v.1.15,2013-04-13 23:40:00,
2013-04-13 18:49:00,47.2,36.0,29.87,ESE,111,5.0,7.0,65,0.00,,,0.00,39,Wunderground v.1.15,2013-04-13 23:49:00,
2013-04-13 18:59:00,47.0,35.8,29.87,SSE,156,5.0,6.0,65,0.00,,,0.00,39,Wunderground v.1.15,2013-04-13 23:59:00,
2013-04-13 19:09:00,46.9,36.1,29.87,ESE,115,5.0,5.0,66,0.00,,,0.00,25,Wunderground v.1.15,2013-04-14 00:09:00,
2013-04-13 19:19:00,46.6,36.6,29.88,East,98,5.0,5.0,68,0.00,,,0.00,14,Wunderground v.1.15,2013-04-14 00:19:00,
2013-04-13 19:29:00,46.1,36.9,29.88,ESE,117,3.0,7.0,70,0.00,,,0.00,9,Wunderground v.1.15,2013-04-14 00:29:00,
2013-04-13 19:40:00,45.7,36.8,29.88,ESE,120,4.0,5.0,71,0.00,,,0.00,0,Wunderground v.1.15,2013-04-14 00:40:00,
2013-04-13 19:49:00,45.5,37.0,29.88,East,88,4.0,5.0,72,0.00,,,0.00,0,Wunderground v.1.15,2013-04-14 00:49:00,
2013-04-13 20:00:00,45.2,36.7,29.87,East,82,4.0,6.0,72,0.00,,,0.00,0,Wunderground v.1.15,2013-04-14 01:00:00,
2013-04-13 20:10:00,45.2,37.1,29.87,East,101,4.0,4.0,73,0.00,,,0.00,0,Wunderground v.1.15,2013-04-14 01:10:00,
2013-04-13 20:19:00,45.0,36.9,29.88,SE,124,5.0,5.0,73,0.00,,,0.00,0,Wunderground v.1.15,2013-04-14 01:19:00,
2013-04-13 20:30:00,44.8,37.0,29.88,SE,132,4.0,4.0,74,0.00,,,0.00,0,Wunderground v.1.15,2013-04-14 01:30:00,
2013-04-13 20:40:00,44.6,37.2,29.88,ESE,108,5.0,5.0,75,0.00,,,0.00,0,Wunderground v.1.15,2013-04-14 01:40:00,
2013-04-13 20:49:00,44.5,37.4,29.87,ENE,77,6.0,6.0,76,0.00,,,0.00,0,Wunderground v.1.15,2013-04-14 01:49:00,
2013-04-13 21:00:00,44.2,37.1,29.87,ESE,110,6.0,6.0,76,0.00,,,0.00,0,Wunderground v.1.15,2013-04-14 02:00:00,
2013-04-13 21:10:00,44.0,36.9,29.87,East,93,6.0,7.0,76,0.00,,,0.00,0,Wunderground v.1.15,2013-04-14 02:10:00,
2013-04-13 21:19:00,43.9,36.5,29.87,ENE,78,7.0,10.0,75,0.00,,,0.00,0,Wunderground v.1.15,2013-04-14 02:19:00,
2013-04-13 21:29:00,43.7,36.6,29.87,East,83,8.0,9.0,76,0.00,,,0.00,0,Wunderground v.1.15,2013-04-14 02:29:00,
2013-04-13 21:39:00,43.6,36.5,29.87,East,88,7.0,8.0,76,0.00,,,0.00,0,Wunderground v.1.15,2013-04-14 02:39:00,
2013-04-13 21:49:00,43.6,36.2,29.87,ENE,77,7.0,11.0,75,0.00,,,0.00,0,Wunderground v.1.15,2013-04-14 02:49:00,
2013-04-13 22:00:00,43.6,35.9,29.87,ENE,69,7.0,10.0,74,0.00,,,0.00,0,Wunderground v.1.15,2013-04-14 03:00:00,
2013-04-13 22:10:00,43.6,35.9,29.88,East,89,7.0,7.0,74,0.00,,,0.00,0,Wunderground v.1.15,2013-04-14 03:10:00,
2013-04-13 22:19:00,43.5,36.1,29.87,East,92,6.0,7.0,75,0.00,,,0.00,0,Wunderground v.1.15,2013-04-14 03:19:00,
2013-04-13 22:30:00,43.4,36.0,29.88,ENE,58,7.0,7.0,75,0.00,,,0.00,0,Wunderground v.1.15,2013-04-14 03:30:00,
2013-04-13 22:40:00,43.1,36.7,29.87,ENE,65,6.0,7.0,78,0.00,,,0.00,0,Wunderground v.1.15,2013-04-14 03:40:00,
2013-04-13 22:49:00,42.9,36.5,29.87,East,98,7.0,8.0,78,0.00,,,0.00,0,Wunderground v.1.15,2013-04-14 03:49:00,
2013-04-13 23:00:00,43.0,36.3,29.87,East,92,8.0,8.0,77,0.00,,,0.00,0,Wunderground v.1.15,2013-04-14 04:00:00,
2013-04-13 23:10:00,42.8,36.1,29.86,East,96,8.0,9.0,77,0.00,,,0.00,0,Wunderground v.1.15,2013-04-14 04:10:00,
2013-04-13 23:19:00,42.7,36.3,29.85,ESE,103,8.0,8.0,78,0.00,,,0.00,0,Wunderground v.1.15,2013-04-14 04:19:00,
2013-04-13 23:29:00,42.6,36.2,29.84,East,86,8.0,11.0,78,0.00,,,0.00,0,Wunderground v.1.15,2013-04-14 04:29:00,
2013-04-13 23:39:00,42.5,36.4,29.84,ESE,106,9.0,9.0,79,0.00,,,0.00,0,Wunderground v.1.15,2013-04-14 04:39:00,
2013-04-13 23:49:00,42.4,36.3,29.83,East,93,8.0,8.0,79,0.00,,,0.00,0,Wunderground v.1.15,2013-04-14 04:49:00,